Time;durP1;ratioP1;P1;durP2;ratioP2;P2;SDS_P1;SDS_P2;PMS_P1;PMS_P2;Temp;Humidity;BMP_temperature;BMP_pressure;BME280_temperature;BME280_humidity;BME280_pressure;Samples;Min_cycle;Max_cycle;Signal;HPM_P1;HPM_P2
2022/10/16 00:00:28;;;;;;;;;;;12.20;99.90;;;;;;4846408;29;20777;-75
2022/10/16 00:02:53;;;;;;;11.23;6.18;;;12.20;99.90;;;;;;4862964;29;19919;-75
2022/10/16 00:05:19;;;;;;;;;;;12.30;99.90;;;;;;4862724;29;20033;-75
2022/10/16 00:07:44;;;;;;;12.40;5.40;;;12.30;99.90;;;;;;4846486;29;20014;-75
2022/10/16 00:10:10;;;;;;;;;;;12.30;99.90;;;;;;4863797;29;20040;-75
2022/10/16 00:12:35;;;;;;;9.73;5.60;;;12.40;99.90;;;;;;4847806;29;19916;-76
2022/10/16 00:15:01;;;;;;;;;;;12.40;99.90;;;;;;4846320;29;20086;-75
2022/10/16 00:17:27;;;;;;;12.95;5.47;;;12.40;99.90;;;;;;4862279;29;19918;-75
2022/10/16 00:19:52;;;;;;;;;;;12.30;99.90;;;;;;4861699;29;20125;-75
2022/10/16 00:22:18;;;;;;;15.05;5.15;;;12.30;99.90;;;;;;4845060;29;19923;-76
2022/10/16 00:24:43;;;;;;;;;;;12.30;99.90;;;;;;4860749;29;20543;-75
2022/10/16 00:27:09;;;;;;;10.10;4.72;;;12.30;99.90;;;;;;4861493;29;20389;-75
2022/10/16 00:29:34;;;;;;;;;;;12.20;99.90;;;;;;4861776;29;20067;-75
2022/10/16 00:32:00;;;;;;;18.13;6.32;;;12.20;99.90;;;;;;4860014;29;20019;-75
2022/10/16 00:34:25;;;;;;;;;;;12.30;99.90;;;;;;4844961;29;20566;-75
2022/10/16 00:36:51;;;;;;;14.38;4.78;;;12.30;99.90;;;;;;4861259;29;19940;-75
2022/10/16 00:39:16;;;;;;;;;;;12.30;99.90;;;;;;4861585;29;20531;-75
2022/10/16 00:41:42;;;;;;;12.05;4.78;;;12.30;99.90;;;;;;4859911;29;19947;-75
2022/10/16 00:44:26;;;;;;;;;;;12.30;99.90;;;;;;4861475;29;20380;-75
2022/10/16 00:46:52;;;;;;;11.48;5.60;;;12.40;99.90;;;;;;4860985;29;19956;-75
2022/10/16 00:49:19;;;;;;;;;;;12.40;99.90;;;;;;4845313;29;20041;-75
2022/10/16 00:51:51;;;;;;;11.30;5.53;;;12.50;99.90;;;;;;4860005;29;19951;-75
2022/10/16 00:54:23;;;;;;;9.80;4.93;;;12.50;99.90;;;;;;4861315;29;20467;-75
2022/10/16 00:56:50;;;;;;;12.32;5.03;;;12.60;99.90;;;;;;4860912;29;20089;-75
2022/10/16 00:59:26;;;;;;;9.38;5.47;;;12.60;99.90;;;;;;4844331;29;20060;-75
2022/10/16 01:01:52;;;;;;;9.55;4.53;;;12.60;99.90;;;;;;4861147;29;20036;-75
2022/10/16 01:04:18;;;;;;;12.73;5.35;;;12.60;99.90;;;;;;4844241;29;20034;-75
2022/10/16 01:07:11;;;;;;;9.95;5.18;;;12.60;99.90;;;;;;4844379;29;20655;-75
2022/10/16 01:09:39;;;;;;;8.75;5.30;;;12.60;99.90;;;;;;4860689;29;20108;-75
2022/10/16 01:12:30;;;;;;;9.73;4.70;;;12.60;99.90;;;;;;4844480;29;20045;-75
2022/10/16 01:15:25;;;;;;;18.67;5.20;;;12.70;99.90;;;;;;4844316;29;20033;-76
2022/10/16 01:18:08;;;;;;;14.95;4.97;;;12.70;99.90;;;;;;4860972;29;20034;-75
2022/10/16 01:20:55;;;;;;;9.70;4.63;;;12.70;99.90;;;;;;4844464;29;20483;-75
2022/10/16 01:23:24;;;;;;;9.55;4.97;;;12.70;99.90;;;;;;4860857;29;20495;-75
2022/10/16 01:26:17;;;;;;;7.88;4.72;;;12.70;99.90;;;;;;4844471;29;20656;-74
2022/10/16 01:28:51;;;;;;;7.63;4.43;;;12.60;99.90;;;;;;4844087;29;20029;-74
2022/10/16 01:31:21;;;;;;;9.38;4.60;;;12.60;99.90;;;;;;4844339;29;20049;-75
2022/10/16 01:33:57;;;;;;;10.23;4.57;;;12.60;99.90;;;;;;4860237;29;20055;-75
2022/10/16 01:36:29;;;;;;;11.15;4.93;;;12.60;99.90;;;;;;4856354;29;20041;-75
2022/10/16 01:39:01;;;;;;;7.72;4.88;;;12.60;99.90;;;;;;4860976;29;20042;-75
2022/10/16 01:41:37;;;;;;;12.02;4.85;;;12.50;99.90;;;;;;4861001;29;20069;-75
2022/10/16 01:44:19;;;;;;;14.48;5.20;;;12.50;99.90;;;;;;4861222;29;20044;-74
2022/10/16 01:46:50;;;;;;;8.20;4.28;;;12.50;99.90;;;;;;4860606;29;20053;-75
2022/10/16 01:49:17;;;;;;;10.43;5.03;;;12.40;99.90;;;;;;4861330;29;20026;-75
2022/10/16 01:51:47;;;;;;;8.90;5.03;;;12.40;99.90;;;;;;4860714;29;20029;-75
2022/10/16 01:54:16;;;;;;;10.32;4.78;;;12.40;99.90;;;;;;4844131;29;20041;-74
2022/10/16 01:56:42;;;;;;;15.52;5.35;;;12.40;99.90;;;;;;4843943;29;20090;-75
2022/10/16 01:59:15;;;;;;;12.00;4.80;;;12.40;99.90;;;;;;4844329;29;20053;-76
2022/10/16 02:01:47;;;;;;;7.60;4.45;;;12.30;99.90;;;;;;4843708;29;20044;-75
2022/10/16 02:04:27;;;;;;;8.32;4.97;;;12.40;99.90;;;;;;4843658;29;20128;-76
2022/10/16 02:06:53;;;;;;;14.90;5.38;;;12.30;99.90;;;;;;4843601;29;20502;-75
2022/10/16 02:09:20;;;;;;;12.23;5.07;;;12.30;99.90;;;;;;4859257;29;20061;-75
2022/10/16 02:11:45;;;;;;;;;;;12.30;99.90;;;;;;4860793;29;20751;-75
2022/10/16 02:14:11;;;;;;;7.03;4.35;;;12.30;99.90;;;;;;4843590;29;19920;-75
2022/10/16 02:16:38;;;;;;;;;;;12.30;99.90;;;;;;4861326;29;20026;-75
2022/10/16 02:19:05;;;;;;;7.55;4.55;;;12.30;99.90;;;;;;4860571;29;19916;-75
2022/10/16 02:21:46;;;;;;;15.55;4.95;;;12.30;99.90;;;;;;4843034;29;20033;-75
2022/10/16 02:24:37;;;;;;;15.18;4.72;;;12.30;99.90;;;;;;4861015;29;20037;-75
2022/10/16 02:27:26;;;;;;;13.68;4.72;;;12.30;99.90;;;;;;4854856;29;20064;-74
2022/10/16 02:30:24;;;;;;;13.27;4.75;;;12.30;99.90;;;;;;4855359;29;20045;-74
2022/10/16 02:32:51;;;;;;;13.88;4.85;;;12.30;99.90;;;;;;4855658;29;20029;-76
2022/10/16 02:35:19;;;;;;;10.60;5.50;;;12.30;99.90;;;;;;4844380;29;20030;-76
2022/10/16 02:37:46;;;;;;;9.93;4.95;;;12.30;99.90;;;;;;4859512;29;20041;-75
2022/10/16 02:40:13;;;;;;;9.32;4.88;;;12.30;99.90;;;;;;4842594;29;20046;-74
2022/10/16 02:42:40;;;;;;;12.10;4.45;;;12.30;99.90;;;;;;4859294;29;20057;-75
2022/10/16 02:45:07;;;;;;;11.15;4.80;;;12.30;99.90;;;;;;4859192;29;20037;-75
2022/10/16 02:47:33;;;;;;;11.48;5.40;;;12.30;99.90;;;;;;4858992;29;20049;-75
2022/10/16 02:49:59;;;;;;;;;;;12.20;99.90;;;;;;4859541;29;20109;-75
2022/10/16 02:52:25;;;;;;;11.52;4.55;;;12.20;99.90;;;;;;4857700;29;19939;-75
2022/10/16 02:54:51;;;;;;;;;;;12.20;99.90;;;;;;4842830;29;20033;-75
2022/10/16 02:57:17;;;;;;;15.55;4.38;;;12.10;99.90;;;;;;4858985;29;20293;-75
2022/10/16 02:59:42;;;;;;;;;;;12.10;99.90;;;;;;4859243;29;20045;-75
2022/10/16 03:02:08;;;;;;;12.75;4.78;;;12.00;99.90;;;;;;4858840;29;19920;-74
2022/10/16 03:04:33;;;;;;;;;;;11.90;99.90;;;;;;4841947;29;20132;-75
2022/10/16 03:06:59;;;;;;;10.98;4.72;;;11.90;99.90;;;;;;4859234;29;20333;-75
2022/10/16 03:09:24;;;;;;;;;;;11.90;99.90;;;;;;4842229;29;20037;-75
2022/10/16 03:11:50;;;;;;;9.05;5.47;;;11.90;99.90;;;;;;4857663;29;19915;-75
2022/10/16 03:14:15;;;;;;;;;;;11.80;99.90;;;;;;4859503;29;20528;-75
2022/10/16 03:16:41;;;;;;;12.82;4.95;;;11.80;99.90;;;;;;4859060;29;19947;-75
2022/10/16 03:19:06;;;;;;;;;;;11.70;99.90;;;;;;4859056;29;20108;-76
2022/10/16 03:21:32;;;;;;;12.45;6.07;;;11.70;99.90;;;;;;4842936;29;19968;-77
2022/10/16 03:23:57;;;;;;;;;;;11.60;99.90;;;;;;4842377;29;20038;-75
2022/10/16 03:26:23;;;;;;;13.35;5.50;;;11.60;99.90;;;;;;4841883;29;19955;-75
2022/10/16 03:28:49;;;;;;;;;;;11.60;99.90;;;;;;4859359;29;20045;-75
2022/10/16 03:31:14;;;;;;;11.65;6.70;;;11.40;99.90;;;;;;4858885;29;19912;-75
2022/10/16 03:33:40;;;;;;;;;;;11.40;99.90;;;;;;4842494;29;20439;-75
2022/10/16 03:36:06;;;;;;;13.93;5.88;;;11.30;99.90;;;;;;4841788;29;20407;-75
2022/10/16 03:38:32;;;;;;;10.48;5.88;;;11.30;99.90;;;;;;4858564;29;20033;-75
2022/10/16 03:40:57;;;;;;;;;;;11.20;99.90;;;;;;4842681;29;20608;-76
2022/10/16 03:43:23;;;;;;;13.18;6.47;;;11.20;99.90;;;;;;4856944;29;20393;-75
2022/10/16 03:45:50;;;;;;;;;;;11.10;99.90;;;;;;4859232;29;20037;-75
2022/10/16 03:48:15;;;;;;;13.75;5.95;;;11.00;99.90;;;;;;4858397;29;19967;-75
2022/10/16 03:50:41;;;;;;;;;;;11.00;99.90;;;;;;4859498;29;20065;-75
2022/10/16 03:53:06;;;;;;;12.40;6.38;;;10.90;99.90;;;;;;4858382;29;20296;-75
2022/10/16 03:55:32;;;;;;;;;;;10.80;99.90;;;;;;4842316;29;20480;-74
2022/10/16 03:57:57;;;;;;;10.30;5.50;;;10.80;99.90;;;;;;4857436;29;19919;-75
2022/10/16 04:00:23;;;;;;;;;;;10.80;99.90;;;;;;4858687;29;20431;-75
2022/10/16 04:02:48;;;;;;;12.30;6.18;;;10.80;99.90;;;;;;4858518;29;19916;-75
2022/10/16 04:05:14;;;;;;;;;;;10.70;99.90;;;;;;4842399;29;20112;-75
2022/10/16 04:07:39;;;;;;;7.68;5.03;;;10.70;99.90;;;;;;4842148;29;19919;-75
2022/10/16 04:10:05;;;;;;;;;;;10.70;99.90;;;;;;4858598;29;20053;-76
2022/10/16 04:12:31;;;;;;;11.80;5.15;;;10.70;99.90;;;;;;4841697;29;19912;-75
2022/10/16 04:14:56;;;;;;;;;;;10.60;99.90;;;;;;4842916;29;20040;-75
2022/10/16 04:17:22;;;;;;;10.60;6.22;;;10.60;99.90;;;;;;4845929;29;19928;-75
2022/10/16 04:19:47;;;;;;;;;;;10.60;99.90;;;;;;4846291;29;20065;-75
2022/10/16 04:22:13;;;;;;;14.98;5.85;;;10.50;99.90;;;;;;4861569;29;20404;-74
2022/10/16 04:24:38;;;;;;;;;;;10.50;99.90;;;;;;4845891;29;20037;-75
2022/10/16 04:27:04;;;;;;;11.02;6.40;;;10.50;99.90;;;;;;4861566;29;19944;-75
2022/10/16 04:29:30;;;;;;;;;;;10.40;99.90;;;;;;4862229;29;20405;-75
2022/10/16 04:31:55;;;;;;;9.98;6.13;;;10.40;99.90;;;;;;4862047;29;19918;-75
2022/10/16 04:34:21;;;;;;;;;;;10.40;99.90;;;;;;4845336;29;20093;-74
2022/10/16 04:36:49;;;;;;;10.77;5.82;;;10.40;99.90;;;;;;4861599;29;19995;-75
2022/10/16 04:39:16;;;;;;;14.95;6.45;;;10.40;99.90;;;;;;4861623;29;20041;-75
2022/10/16 04:41:41;;;;;;;18.75;7.88;;;10.40;99.90;;;;;;4861658;29;20372;-75
2022/10/16 04:44:08;;;;;;;;;;;10.40;99.90;;;;;;4844912;29;20082;-75
2022/10/16 04:46:33;;;;;;;14.57;7.28;;;10.40;99.90;;;;;;4861361;29;19937;-75
2022/10/16 04:48:59;;;;;;;;;;;10.40;99.90;;;;;;4845233;29;20038;-75
2022/10/16 04:51:25;;;;;;;15.48;7.20;;;10.30;99.90;;;;;;4862063;29;19995;-77
2022/10/16 04:53:51;;;;;;;18.73;6.75;;;10.40;99.90;;;;;;4860898;29;20072;-76
2022/10/16 04:56:17;;;;;;;;;;;10.30;99.90;;;;;;4844981;29;20033;-75
2022/10/16 04:58:42;;;;;;;17.10;7.30;;;10.40;99.90;;;;;;4842952;29;20469;-75
2022/10/16 05:01:08;;;;;;;;;;;10.30;99.90;;;;;;4843375;29;20046;-75
2022/10/16 05:03:34;;;;;;;20.17;8.25;;;10.30;99.90;;;;;;4843418;29;19916;-75
2022/10/16 05:05:59;;;;;;;;;;;10.30;99.90;;;;;;4861295;29;20037;-75
2022/10/16 05:08:25;;;;;;;13.27;6.70;;;10.30;99.90;;;;;;4851918;29;19912;-76
2022/10/16 05:10:51;;;;;;;;;;;10.30;99.90;;;;;;4857347;29;20112;-75
2022/10/16 05:13:16;;;;;;;14.13;6.47;;;10.30;99.90;;;;;;4860638;29;19912;-75
2022/10/16 05:15:42;;;;;;;;;;;10.20;99.90;;;;;;4844385;29;20038;-75
2022/10/16 05:18:08;;;;;;;15.90;6.68;;;10.30;99.90;;;;;;4844032;29;19919;-75
2022/10/16 05:20:34;;;;;;;19.13;6.80;;;10.30;99.90;;;;;;4860511;29;20120;-75
2022/10/16 05:22:59;;;;;;;;;;;10.20;99.90;;;;;;4860627;29;20112;-75
2022/10/16 05:25:25;;;;;;;11.13;5.82;;;10.30;99.90;;;;;;4844140;29;20293;-75
2022/10/16 05:27:51;;;;;;;;;;;10.20;99.90;;;;;;4859532;29;20025;-75
2022/10/16 05:30:17;;;;;;;10.30;6.40;;;10.20;99.90;;;;;;4859507;29;20382;-75
2022/10/16 05:32:48;;;;;;;13.05;5.72;;;10.20;99.90;;;;;;4860074;29;20025;-75
2022/10/16 05:35:13;;;;;;;11.80;6.18;;;10.20;99.90;;;;;;4859716;29;20116;-75
2022/10/16 05:37:39;;;;;;;;;;;10.20;99.90;;;;;;4854858;29;20170;-75
2022/10/16 05:40:05;;;;;;;18.00;7.47;;;10.20;99.90;;;;;;4859979;29;20305;-75
2022/10/16 05:42:31;;;;;;;12.05;6.40;;;10.30;99.90;;;;;;4860038;29;20175;-75
2022/10/16 05:44:56;;;;;;;;;;;10.40;99.90;;;;;;4860149;29;20603;-76
2022/10/16 05:47:22;;;;;;;15.60;7.30;;;10.40;99.90;;;;;;4853332;29;19930;-75
2022/10/16 05:49:47;;;;;;;;;;;10.60;99.90;;;;;;4848438;29;20543;-75
2022/10/16 05:52:13;;;;;;;15.57;6.43;;;10.70;99.90;;;;;;4829672;29;20378;-74
2022/10/16 05:54:38;;;;;;;;;;;10.70;99.90;;;;;;4853252;29;20076;-75
2022/10/16 05:57:05;;;;;;;17.67;6.80;;;10.90;99.90;;;;;;4843330;29;19924;-75
2022/10/16 05:59:31;;;;;;;16.02;6.40;;;11.10;99.90;;;;;;4843191;29;20045;-75
2022/10/16 06:01:57;;;;;;;14.52;6.63;;;11.20;99.90;;;;;;4839861;29;20033;-76
2022/10/16 06:04:22;;;;;;;;;;;11.40;99.90;;;;;;4848488;29;20046;-76
2022/10/16 06:06:48;;;;;;;9.05;5.28;;;11.60;99.90;;;;;;4840254;29;19972;-76
2022/10/16 06:09:14;;;;;;;;;;;11.80;99.90;;;;;;4843811;29;20029;-76
2022/10/16 06:11:40;;;;;;;13.77;5.30;;;12.00;99.90;;;;;;4860987;29;19912;-75
2022/10/16 06:14:08;;;;;;;;;;;12.20;99.90;;;;;;4861792;29;20118;-75
2022/10/16 06:16:36;;;;;;;15.88;5.40;;;12.40;99.90;;;;;;4844210;29;20416;-75
2022/10/16 06:19:04;;;;;;;10.75;5.07;;;12.70;99.90;;;;;;4861691;29;20037;-76
2022/10/16 06:21:29;;;;;;;10.30;5.53;;;12.90;99.90;;;;;;4859166;29;20132;-75
2022/10/16 06:23:55;;;;;;;;;;;13.20;99.90;;;;;;4861048;29;20173;-75
2022/10/16 06:26:24;;;;;;;15.57;5.40;;;13.50;99.90;;;;;;4859338;29;19916;-76
2022/10/16 06:28:50;;;;;;;12.07;5.28;;;14.00;99.90;;;;;;4845255;29;20029;-77
2022/10/16 06:31:16;;;;;;;;;;;14.60;99.90;;;;;;4845286;29;20029;-76
2022/10/16 06:33:42;;;;;;;14.27;4.88;;;15.10;99.90;;;;;;4844562;29;19920;-77
2022/10/16 06:36:16;;;;;;;22.13;4.10;;;15.70;99.90;;;;;;4841417;29;20604;-78
2022/10/16 06:38:43;;;;;;;7.15;4.03;;;16.50;99.90;;;;;;4856512;29;20045;-77
2022/10/16 06:41:12;;;;;;;10.90;3.72;;;17.30;99.90;;;;;;4856154;29;20045;-77
2022/10/16 06:43:38;;;;;;;12.85;3.88;;;17.90;99.90;;;;;;4856976;29;20036;-81
2022/10/16 06:46:05;;;;;;;12.05;4.32;;;18.30;99.90;;;;;;4856849;29;20037;-78
2022/10/16 06:48:31;;;;;;;11.85;4.13;;;18.70;99.80;;;;;;4855584;29;20053;-78
2022/10/16 06:51:02;;;;;;;13.48;4.13;;;18.90;99.40;;;;;;4858756;29;20036;-79
2022/10/16 06:53:30;;;;;;;15.90;5.20;;;18.90;99.20;;;;;;4858614;29;20872;-79
2022/10/16 06:55:56;;;;;;;12.63;4.28;;;18.90;98.50;;;;;;4842209;29;20037;-80
2022/10/16 06:58:22;;;;;;;17.15;3.78;;;18.70;98.80;;;;;;4841622;29;20029;-78
2022/10/16 07:00:48;;;;;;;8.52;4.13;;;18.60;98.60;;;;;;4859447;29;20041;-76
2022/10/16 07:03:14;;;;;;;11.52;3.97;;;18.30;98.70;;;;;;4861427;29;20041;-76
2022/10/16 07:05:42;;;;;;;7.35;3.75;;;17.90;99.50;;;;;;4843986;29;20029;-76
2022/10/16 07:08:08;;;;;;;10.35;4.60;;;17.60;99.90;;;;;;4845027;29;20044;-76
2022/10/16 07:10:34;;;;;;;20.08;4.80;;;17.30;99.90;;;;;;4860676;29;20081;-77
2022/10/16 07:13:00;;;;;;;10.48;4.50;;;17.20;99.90;;;;;;4863057;29;20382;-76
2022/10/16 07:15:26;;;;;;;8.00;3.90;;;16.90;99.90;;;;;;4847567;29;20061;-76
2022/10/16 07:17:52;;;;;;;8.70;3.97;;;16.70;99.90;;;;;;4865286;29;20068;-77
2022/10/16 07:20:17;;;;;;;7.18;3.80;;;16.60;99.90;;;;;;4864151;29;20037;-76
2022/10/16 07:22:43;;;;;;;5.50;3.10;;;16.70;99.90;;;;;;4863482;29;20036;-76
2022/10/16 07:25:09;;;;;;;8.18;3.78;;;16.60;99.90;;;;;;4861734;29;20041;-76
2022/10/16 07:27:35;;;;;;;8.93;3.80;;;16.60;99.90;;;;;;4845643;29;20081;-76
2022/10/16 07:30:00;;;;;;;8.05;4.43;;;16.50;99.90;;;;;;4860024;29;20124;-76
2022/10/16 07:32:26;;;;;;;14.88;4.75;;;16.50;99.90;;;;;;4860896;29;20535;-76
2022/10/16 07:34:53;;;;;;;10.48;4.53;;;16.30;99.90;;;;;;4861297;29;20022;-77
2022/10/16 07:37:19;;;;;;;13.45;4.13;;;16.40;99.90;;;;;;4844894;29;20621;-76
2022/10/16 07:39:44;;;;;;;8.38;4.40;;;16.50;99.90;;;;;;4844887;29;20048;-76
2022/10/16 07:42:10;;;;;;;6.47;3.38;;;16.50;99.90;;;;;;4844483;29;20434;-76
2022/10/16 07:44:36;;;;;;;7.75;4.15;;;16.50;99.90;;;;;;4859669;29;20034;-75
2022/10/16 07:47:01;;;;;;;9.40;3.97;;;16.50;99.90;;;;;;4859637;29;20057;-76
2022/10/16 07:49:27;;;;;;;7.38;4.00;;;16.60;99.90;;;;;;4861014;29;20046;-76
2022/10/16 07:51:53;;;;;;;9.13;4.40;;;16.60;99.90;;;;;;4865663;29;20491;-77
2022/10/16 07:54:18;;;;;;;11.13;3.90;;;16.60;99.90;;;;;;4865877;29;20064;-76
2022/10/16 07:56:44;;;;;;;10.30;4.07;;;16.60;99.90;;;;;;4848428;29;20525;-76
2022/10/16 07:59:09;;;;;;;7.50;4.68;;;16.60;99.90;;;;;;4848100;29;20044;-77
2022/10/16 08:01:35;;;;;;;12.15;4.43;;;16.70;99.90;;;;;;4848744;29;20093;-76
2022/10/16 08:04:01;;;;;;;17.08;4.32;;;16.80;99.90;;;;;;4861438;29;20033;-75
2022/10/16 08:06:26;;;;;;;17.27;4.95;;;16.90;99.90;;;;;;4859910;29;20041;-76
2022/10/16 08:08:52;;;;;;;9.15;3.97;;;17.00;99.90;;;;;;4860386;29;20769;-75
2022/10/16 08:11:17;;;;;;;9.20;3.70;;;17.20;99.90;;;;;;4843825;29;20080;-78
2022/10/16 08:13:43;;;;;;;9.60;3.67;;;17.50;99.90;;;;;;4842554;29;20038;-77
2022/10/16 08:16:09;;;;;;;8.90;3.90;;;17.90;99.40;;;;;;4858607;29;20029;-80
2022/10/16 08:18:37;;;;;;;10.73;3.90;;;18.60;97.90;;;;;;4842469;29;20415;-83
2022/10/16 08:21:04;;;;;;;11.40;3.65;;;19.30;97.60;;;;;;4841008;29;20564;-84
2022/10/16 08:23:30;;;;;;;14.20;4.30;;;19.90;95.40;;;;;;4834187;29;20117;-84
2022/10/16 08:26:01;;;;;;;10.00;4.05;;;20.50;94.30;;;;;;4840741;29;20040;-81
2022/10/16 08:28:26;;;;;;;7.75;4.15;;;21.20;93.90;;;;;;4840477;29;20476;-80
2022/10/16 08:30:52;;;;;;;11.20;4.60;;;21.80;92.00;;;;;;4839232;29;20078;-81
2022/10/16 08:33:18;;;;;;;9.57;4.30;;;22.30;90.10;;;;;;4840504;29;20037;-80
2022/10/16 08:35:51;;;;;;;9.43;4.20;;;22.90;86.90;;;;;;4840528;29;20030;-79
2022/10/16 08:38:16;;;;;;;8.82;4.13;;;23.30;82.40;;;;;;4840309;29;20427;-80
2022/10/16 08:40:43;;;;;;;12.60;5.57;;;23.60;80.70;;;;;;4853144;29;20124;-80
2022/10/16 08:43:21;;;;;;;8.70;4.18;;;24.00;78.10;;;;;;4866070;29;20104;-81
2022/10/16 08:46:14;;;;;;;10.98;4.28;;;24.10;72.90;;;;;;4823513;29;20412;-80
2022/10/16 08:48:45;;;;;;;7.72;4.05;;;23.90;73.90;;;;;;4823384;29;20167;-80
2022/10/16 08:51:26;;;;;;;13.25;4.22;;;24.20;72.00;;;;;;4823485;29;20034;-80
2022/10/16 08:53:56;;;;;;;14.85;6.00;;;24.60;70.80;;;;;;4839081;29;20479;-79
2022/10/16 08:56:22;;;;;;;10.55;4.30;;;24.80;69.60;;;;;;4857681;29;20066;-80
2022/10/16 08:58:49;;;;;;;10.93;4.10;;;24.70;68.30;;;;;;4857865;29;20480;-78
2022/10/16 09:01:18;;;;;;;12.25;4.55;;;25.00;66.10;;;;;;4857275;29;20045;-79
2022/10/16 09:04:14;;;;;;;11.88;4.07;;;25.10;65.20;;;;;;4858486;29;20026;-80
2022/10/16 09:06:46;;;;;;;7.25;4.20;;;25.40;64.90;;;;;;4857454;29;20072;-79
2022/10/16 09:09:21;;;;;;;7.85;4.13;;;25.40;64.40;;;;;;4858154;29;20534;-78
2022/10/16 09:12:04;;;;;;;8.63;3.95;;;25.30;63.90;;;;;;4858151;29;20036;-77
2022/10/16 09:14:38;;;;;;;8.18;4.28;;;25.30;63.50;;;;;;4841224;29;20074;-78
2022/10/16 09:17:30;;;;;;;7.10;4.60;;;25.40;61.70;;;;;;4841350;29;20033;-78
2022/10/16 09:20:19;;;;;;;7.53;4.72;;;25.30;62.60;;;;;;4857949;29;20037;-76
2022/10/16 09:22:45;;;;;;;9.98;4.63;;;25.50;60.80;;;;;;4836299;29;20041;-77
2022/10/16 09:25:20;;;;;;;8.70;4.20;;;25.60;61.60;;;;;;4858074;29;20037;-78
2022/10/16 09:27:47;;;;;;;6.55;4.50;;;25.70;61.50;;;;;;4857676;29;20044;-78
2022/10/16 09:30:15;;;;;;;8.02;3.67;;;25.70;60.40;;;;;;4840399;29;20120;-77
2022/10/16 09:32:43;;;;;;;7.38;4.40;;;25.60;59.90;;;;;;4855491;29;20564;-78
2022/10/16 09:35:31;;;;;;;6.90;4.10;;;25.80;58.80;;;;;;4857269;29;20041;-78
2022/10/16 09:37:56;;;;;;;9.35;4.68;;;25.70;58.80;;;;;;4838587;29;20503;-78
2022/10/16 09:40:31;;;;;;;14.30;4.40;;;25.40;60.00;;;;;;4840293;29;20073;-78
2022/10/16 09:43:17;;;;;;;15.57;3.55;;;25.40;59.10;;;;;;4856824;29;20160;-81
2022/10/16 09:45:52;;;;;;;15.02;3.17;;;25.20;58.10;;;;;;4840904;29;20057;-82
2022/10/16 09:48:20;;;;;;;8.05;4.05;;;24.80;59.90;;;;;;4840793;29;20064;-81
2022/10/16 09:50:56;;;;;;;8.40;4.00;;;24.50;59.40;;;;;;4856781;29;20045;-79
2022/10/16 09:53:22;;;;;;;6.20;3.65;;;24.70;61.30;;;;;;4839296;29;20057;-80
2022/10/16 09:55:52;;;;;;;7.68;3.75;;;24.80;60.80;;;;;;4857394;29;20033;-80
2022/10/16 09:58:21;;;;;;;6.18;3.83;;;24.80;60.70;;;;;;4857543;29;20053;-80
2022/10/16 10:00:53;;;;;;;9.48;3.50;;;24.70;60.10;;;;;;4856613;29;20046;-81
2022/10/16 10:03:36;;;;;;;7.00;3.17;;;24.20;60.60;;;;;;4840451;29;20706;-82
2022/10/16 10:06:26;;;;;;;5.75;3.22;;;23.40;63.50;;;;;;4840024;29;20177;-85
2022/10/16 10:09:15;;;;;;;7.22;3.72;;;22.70;64.10;;;;;;4856140;29;20447;-83
2022/10/16 10:11:43;;;;;;;10.43;3.95;;;22.00;66.80;;;;;;4857790;29;20053;-79
2022/10/16 10:14:39;;;;;;;7.93;4.05;;;21.60;68.70;;;;;;4857216;29;20049;-78
2022/10/16 10:17:05;;;;;;;9.95;4.20;;;21.40;70.60;;;;;;4853715;29;20128;-77
2022/10/16 10:19:43;;;;;;;7.28;3.97;;;21.20;71.50;;;;;;4840490;29;20151;-79
2022/10/16 10:22:41;;;;;;;9.88;3.72;;;21.00;72.10;;;;;;4855993;29;20045;-77
2022/10/16 10:25:16;;;;;;;6.88;3.85;;;20.80;72.80;;;;;;4841657;29;20097;-77
2022/10/16 10:28:13;;;;;;;7.72;3.85;;;20.60;74.30;;;;;;4841182;29;20060;-77
2022/10/16 10:30:56;;;;;;;9.70;4.15;;;20.40;75.10;;;;;;4849811;29;20305;-76
2022/10/16 10:33:37;;;;;;;7.15;3.40;;;20.20;75.60;;;;;;4842282;29;20025;-78
2022/10/16 10:36:21;;;;;;;7.95;3.95;;;20.10;77.20;;;;;;4858435;29;20030;-76
2022/10/16 10:38:56;;;;;;;8.43;3.38;;;20.00;77.90;;;;;;4840948;29;20033;-77
2022/10/16 10:41:40;;;;;;;7.28;3.47;;;20.10;77.90;;;;;;4837105;29;20422;-78
2022/10/16 10:44:16;;;;;;;6.47;3.67;;;20.10;77.00;;;;;;4858920;29;20033;-76
2022/10/16 10:46:51;;;;;;;8.35;3.88;;;20.00;78.10;;;;;;4841727;29;20041;-77
2022/10/16 10:49:51;;;;;;;11.55;3.45;;;20.00;78.90;;;;;;4841932;29;20046;-77
2022/10/16 10:52:34;;;;;;;8.13;3.97;;;20.00;79.40;;;;;;4841512;29;20034;-77
2022/10/16 10:55:10;;;;;;;7.22;3.92;;;20.10;80.10;;;;;;4840291;29;20032;-76
2022/10/16 10:57:45;;;;;;;8.65;3.78;;;20.20;78.80;;;;;;4860242;29;20100;-77
2022/10/16 11:00:25;;;;;;;12.10;4.03;;;20.00;79.30;;;;;;4876492;29;20120;-78
2022/10/16 11:03:10;;;;;;;7.80;3.58;;;20.00;80.90;;;;;;4861736;29;20040;-76
2022/10/16 11:05:48;;;;;;;8.05;3.58;;;19.80;80.40;;;;;;4861600;29;20033;-76
2022/10/16 11:08:21;;;;;;;8.57;3.67;;;19.60;81.30;;;;;;4837097;29;20041;-77
2022/10/16 11:11:08;;;;;;;8.45;4.45;;;19.60;82.20;;;;;;4852055;29;20455;-76
2022/10/16 11:13:47;;;;;;;9.35;3.88;;;19.70;83.20;;;;;;4860392;29;20495;-76
2022/10/16 11:16:35;;;;;;;11.23;3.03;;;19.90;82.20;;;;;;4841903;29;20081;-77
2022/10/16 11:19:22;;;;;;;10.55;3.85;;;20.00;81.70;;;;;;4858052;29;20036;-76
2022/10/16 11:22:20;;;;;;;15.68;3.85;;;20.00;81.40;;;;;;4841563;29;20076;-77
2022/10/16 11:25:08;;;;;;;8.02;3.63;;;19.90;81.90;;;;;;4844167;29;20057;-76
2022/10/16 11:28:20;;;;;;;10.23;3.45;;;19.80;81.60;;;;;;4858363;29;20025;-76
2022/10/16 11:30:45;;;;;;;14.13;3.90;;;19.60;83.20;;;;;;4804638;29;20571;-75
2022/10/16 11:33:37;;;;;;;13.55;3.63;;;19.50;83.50;;;;;;4821630;29;20052;-75
2022/10/16 11:36:13;;;;;;;5.60;3.58;;;19.40;84.40;;;;;;4848123;29;20037;-76
2022/10/16 11:38:47;;;;;;;13.68;3.47;;;19.50;84.50;;;;;;4876226;29;20061;-75
2022/10/16 11:41:34;;;;;;;10.10;3.78;;;19.60;83.80;;;;;;4860099;29;20422;-75
2022/10/16 11:44:26;;;;;;;8.75;3.13;;;19.50;84.90;;;;;;4876384;29;20418;-76
2022/10/16 11:47:08;;;;;;;5.50;3.08;;;19.40;84.40;;;;;;4859678;29;20026;-75
2022/10/16 11:49:36;;;;;;;7.22;3.60;;;19.40;84.10;;;;;;4860334;29;20048;-74
2022/10/16 11:52:08;;;;;;;10.00;3.15;;;19.30;84.20;;;;;;4876509;29;20917;-75
2022/10/16 11:54:49;;;;;;;9.48;3.63;;;19.30;86.30;;;;;;4859890;29;20128;-76
2022/10/16 11:57:20;;;;;;;10.52;3.47;;;19.30;86.90;;;;;;4876252;29;20491;-75
2022/10/16 11:59:48;;;;;;;11.00;3.75;;;19.30;85.40;;;;;;4859778;29;20405;-75
2022/10/16 12:02:35;;;;;;;12.63;3.97;;;19.30;85.80;;;;;;4876219;29;20132;-75
2022/10/16 12:05:14;;;;;;;7.10;3.00;;;19.30;86.60;;;;;;4877176;29;20033;-76
2022/10/16 12:07:51;;;;;;;7.47;3.08;;;19.40;86.00;;;;;;4877554;29;20081;-76
2022/10/16 12:10:22;;;;;;;7.75;2.78;;;19.40;85.50;;;;;;4860051;29;20029;-75
2022/10/16 12:12:48;;;;;;;9.40;3.75;;;19.50;84.70;;;;;;4859926;29;20033;-75
2022/10/16 12:15:23;;;;;;;5.68;3.33;;;19.60;84.00;;;;;;4876668;29;20104;-75
2022/10/16 12:17:49;;;;;;;9.27;3.78;;;19.50;84.30;;;;;;4859678;29;20037;-75
2022/10/16 12:20:20;;;;;;;6.30;3.17;;;19.50;84.50;;;;;;4875915;29;20029;-75
2022/10/16 12:22:57;;;;;;;7.88;3.03;;;19.50;84.60;;;;;;4876314;29;20537;-75
2022/10/16 12:25:28;;;;;;;5.70;2.90;;;19.50;83.90;;;;;;4876308;29;20025;-76
2022/10/16 12:28:19;;;;;;;6.38;3.53;;;19.50;84.40;;;;;;4876337;29;20065;-75
2022/10/16 12:30:53;;;;;;;7.25;2.90;;;19.50;85.90;;;;;;4876027;29;20093;-76
2022/10/16 12:33:23;;;;;;;8.00;2.53;;;19.70;84.50;;;;;;4875312;29;21028;-75
2022/10/16 12:35:50;;;;;;;4.78;2.38;;;19.80;83.20;;;;;;4859419;29;20101;-76
2022/10/16 12:38:29;;;;;;;4.65;2.50;;;19.90;84.00;;;;;;4878907;29;20025;-77
2022/10/16 12:41:08;;;;;;;4.85;2.75;;;20.00;82.60;;;;;;4857276;29;20042;-76
2022/10/16 12:43:44;;;;;;;7.97;3.38;;;20.20;81.50;;;;;;4841934;29;20030;-76
2022/10/16 12:46:10;;;;;;;4.65;2.47;;;20.20;80.20;;;;;;4841418;29;20115;-77
2022/10/16 12:48:37;;;;;;;9.77;2.88;;;20.20;81.70;;;;;;4841033;29;20143;-77
2022/10/16 12:51:25;;;;;;;7.68;3.50;;;20.20;82.20;;;;;;4842048;29;20037;-76
2022/10/16 12:54:03;;;;;;;5.57;2.97;;;20.20;82.30;;;;;;4824738;29;20049;-77
2022/10/16 12:56:35;;;;;;;4.50;2.40;;;20.40;81.50;;;;;;4824449;29;20733;-77
2022/10/16 12:59:14;;;;;;;5.40;2.58;;;20.50;81.10;;;;;;4824606;29;20033;-77
2022/10/16 13:02:04;;;;;;;5.07;2.63;;;20.60;80.10;;;;;;4841214;29;20089;-77
2022/10/16 13:05:02;;;;;;;4.55;2.60;;;20.70;79.80;;;;;;4824520;29;20034;-77
2022/10/16 13:08:05;;;;;;;9.30;2.72;;;20.70;78.40;;;;;;4840989;29;20037;-76
2022/10/16 13:11:09;;;;;;;11.15;2.58;;;20.70;78.70;;;;;;4866934;29;20033;-77
2022/10/16 13:13:58;;;;;;;8.02;2.42;;;20.60;78.30;;;;;;4841171;29;20084;-76
2022/10/16 13:16:35;;;;;;;9.13;2.20;;;20.60;79.10;;;;;;4824544;29;20061;-77